createdAt,value
2023-07-25T00:01:47.852Z,27.96
2023-07-25T00:04:14.495Z,27.95
2023-07-25T00:06:41.210Z,27.91
2023-07-25T00:09:07.864Z,27.85
2023-07-25T00:11:34.533Z,27.79
2023-07-25T00:14:01.178Z,27.78
2023-07-25T00:16:27.950Z,27.76
2023-07-25T00:18:55.051Z,27.74
2023-07-25T00:21:21.794Z,27.71
2023-07-25T00:23:48.478Z,27.69
2023-07-25T00:26:15.208Z,27.68
2023-07-25T00:28:41.875Z,27.69
2023-07-25T00:31:09.033Z,27.69
2023-07-25T00:33:35.946Z,27.65
2023-07-25T00:36:02.816Z,27.60
2023-07-25T00:38:29.464Z,27.56
2023-07-25T00:40:56.171Z,27.51
2023-07-25T00:43:22.953Z,27.47
2023-07-25T00:46:08.392Z,27.40
2023-07-25T00:48:35.399Z,27.35
2023-07-25T00:51:02.095Z,27.30
2023-07-25T00:53:29.072Z,27.25
2023-07-25T00:55:56.366Z,27.21
2023-07-25T00:58:23.386Z,27.17
2023-07-25T01:00:50.485Z,27.10
2023-07-25T01:03:17.576Z,27.09
2023-07-25T01:05:48.364Z,27.08
2023-07-25T01:08:15.172Z,27.09
2023-07-25T01:10:41.913Z,27.10
2023-07-25T01:13:08.592Z,27.12
2023-07-25T01:15:36.848Z,27.14
2023-07-25T01:18:04.124Z,27.12
2023-07-25T01:20:31.385Z,27.12
2023-07-25T01:22:59.574Z,27.09
2023-07-25T01:25:26.345Z,27.06
2023-07-25T01:27:53.074Z,27.04
2023-07-25T01:30:19.936Z,27.03
2023-07-25T01:32:46.648Z,27.01
2023-07-25T01:35:13.366Z,27.01
2023-07-25T01:37:40.164Z,26.99
2023-07-25T01:40:07.806Z,26.99
2023-07-25T01:42:34.670Z,26.99
2023-07-25T01:45:01.334Z,26.96
2023-07-25T01:47:30.088Z,26.93
2023-07-25T01:49:56.800Z,26.94
2023-07-25T01:52:23.670Z,26.94
2023-07-25T01:54:50.936Z,26.92
2023-07-25T01:57:17.681Z,26.91
2023-07-25T01:59:44.397Z,26.90
2023-07-25T02:02:11.225Z,26.88
2023-07-25T02:04:37.891Z,26.86
2023-07-25T02:07:04.836Z,26.84
2023-07-25T02:09:31.480Z,26.80
2023-07-25T02:11:59.660Z,26.80
2023-07-25T02:14:26.299Z,26.75
2023-07-25T02:16:53.686Z,26.72
2023-07-25T02:19:20.387Z,26.69
2023-07-25T02:21:47.171Z,26.70
2023-07-25T02:24:13.864Z,26.69
2023-07-25T02:26:40.634Z,26.66
2023-07-25T02:29:07.384Z,26.61
2023-07-25T02:31:34.507Z,26.55
2023-07-25T02:34:02.558Z,26.45
2023-07-25T02:36:29.375Z,26.40
2023-07-25T02:38:56.031Z,26.36
2023-07-25T02:41:24.791Z,26.31
2023-07-25T02:43:51.461Z,26.26
2023-07-25T02:46:18.204Z,26.25
2023-07-25T02:48:44.883Z,26.23
2023-07-25T02:51:11.821Z,26.23
2023-07-25T02:53:38.463Z,26.24
2023-07-25T02:56:05.514Z,26.25
2023-07-25T02:58:32.321Z,26.22
2023-07-25T03:01:00.412Z,26.21
2023-07-25T03:03:27.183Z,26.17
2023-07-25T03:05:53.989Z,26.12
2023-07-25T03:08:20.727Z,26.10
2023-07-25T03:10:47.464Z,26.08
2023-07-25T03:13:14.249Z,26.08
2023-07-25T03:15:41.119Z,26.10
2023-07-25T03:18:08.337Z,26.11
2023-07-25T03:20:35.145Z,26.14
2023-07-25T03:23:01.885Z,26.19
2023-07-25T03:25:28.717Z,26.27
2023-07-25T03:27:55.411Z,26.33
2023-07-25T03:30:22.198Z,26.35
2023-07-25T03:32:48.953Z,26.37
2023-07-25T03:35:16.518Z,26.39
2023-07-25T03:37:43.153Z,26.39
2023-07-25T03:40:10.060Z,26.38
2023-07-25T03:42:36.837Z,26.36
2023-07-25T03:45:03.753Z,26.33
2023-07-25T03:47:30.450Z,26.26
2023-07-25T03:49:57.252Z,26.15
2023-07-25T03:52:23.958Z,26.04
2023-07-25T03:54:50.712Z,25.99
2023-07-25T03:57:17.448Z,25.97
2023-07-25T03:59:44.162Z,25.93
2023-07-25T04:02:10.805Z,25.93
2023-07-25T04:04:37.797Z,25.89
2023-07-25T04:07:04.907Z,25.86
2023-07-25T04:09:31.601Z,25.81
2023-07-25T04:11:58.246Z,25.80
2023-07-25T04:14:24.956Z,25.81
2023-07-25T04:16:51.911Z,25.84
2023-07-25T04:19:18.624Z,25.84
2023-07-25T04:21:45.282Z,25.86
2023-07-25T04:24:12.138Z,25.92
2023-07-25T04:26:38.830Z,26.00
2023-07-25T04:29:05.508Z,26.08
2023-07-25T04:31:32.524Z,26.13
2023-07-25T04:33:59.648Z,26.18
2023-07-25T04:36:30.004Z,26.24
2023-07-25T04:38:57.716Z,26.29
2023-07-25T04:41:24.717Z,26.30
2023-07-25T04:43:51.468Z,26.26
2023-07-25T04:46:18.367Z,26.15
2023-07-25T04:48:45.102Z,26.07
2023-07-25T04:51:11.728Z,26.01
2023-07-25T04:53:38.553Z,25.97
2023-07-25T04:56:05.678Z,25.89
2023-07-25T04:58:32.454Z,25.83
2023-07-25T05:00:59.220Z,25.79
2023-07-25T05:03:27.246Z,25.80
2023-07-25T05:05:56.110Z,25.75
2023-07-25T05:08:22.789Z,25.74
2023-07-25T05:10:52.002Z,25.70
2023-07-25T05:13:19.036Z,25.70
2023-07-25T05:15:45.855Z,25.73
2023-07-25T05:18:12.705Z,25.77
2023-07-25T05:20:39.313Z,25.82
2023-07-25T05:23:07.257Z,25.89
2023-07-25T05:25:33.913Z,25.98
2023-07-25T05:28:00.590Z,26.11
2023-07-25T05:30:27.250Z,26.19
2023-07-25T05:33:12.449Z,26.21
2023-07-25T05:35:39.105Z,26.20
2023-07-25T05:38:09.097Z,26.20
2023-07-25T05:40:36.482Z,26.22
2023-07-25T05:43:03.995Z,26.19
2023-07-25T05:45:30.819Z,26.14
2023-07-25T05:47:57.531Z,26.12
2023-07-25T05:50:24.221Z,26.13
2023-07-25T05:52:50.846Z,26.21
2023-07-25T05:55:17.742Z,26.25
2023-07-25T05:57:44.529Z,26.29
2023-07-25T06:00:11.844Z,26.33
2023-07-25T06:02:38.523Z,26.35
2023-07-25T06:05:05.665Z,26.31
2023-07-25T06:07:32.344Z,26.16
2023-07-25T06:09:59.062Z,26.10
2023-07-25T06:12:25.902Z,26.10
2023-07-25T06:14:52.628Z,26.11
2023-07-25T06:17:20.685Z,26.10
2023-07-25T06:19:49.105Z,26.09
2023-07-25T06:22:16.661Z,26.09
2023-07-25T06:24:43.507Z,26.09
2023-07-25T06:27:10.299Z,26.08
2023-07-25T06:29:37.019Z,26.08
2023-07-25T06:32:03.909Z,26.11
2023-07-25T06:34:30.505Z,26.11
2023-07-25T06:36:57.309Z,26.07
2023-07-25T06:39:24.016Z,26.01
2023-07-25T06:41:50.684Z,25.90
2023-07-25T06:44:20.941Z,25.81
2023-07-25T06:46:48.072Z,25.74
2023-07-25T06:49:14.882Z,25.73
2023-07-25T06:51:41.701Z,25.71
2023-07-25T06:54:08.491Z,25.66
2023-07-25T06:56:35.257Z,25.62
2023-07-25T06:59:02.041Z,25.58
2023-07-25T07:01:29.577Z,25.58
2023-07-25T07:03:56.572Z,25.56
2023-07-25T07:06:23.375Z,25.52
2023-07-25T07:08:50.054Z,25.56
2023-07-25T07:11:16.784Z,25.64
2023-07-25T07:13:43.494Z,25.78
2023-07-25T07:16:10.825Z,25.94
2023-07-25T07:18:37.529Z,26.05
2023-07-25T07:21:04.271Z,26.09
2023-07-25T07:23:30.988Z,26.11
2023-07-25T07:25:57.690Z,26.12
2023-07-25T07:28:24.891Z,26.15
2023-07-25T07:30:53.126Z,26.18
2023-07-25T07:33:20.129Z,26.26
2023-07-25T07:35:46.987Z,26.35
2023-07-25T07:38:13.909Z,26.45
2023-07-25T07:40:40.752Z,26.60
2023-07-25T07:43:07.410Z,26.86
2023-07-25T07:45:34.463Z,27.36
2023-07-25T07:48:01.574Z,28.73
2023-07-25T07:50:30.733Z,30.61
2023-07-25T07:52:57.957Z,31.84
2023-07-25T07:55:25.121Z,32.28
2023-07-25T07:57:51.893Z,32.11
2023-07-25T08:00:18.798Z,31.65
2023-07-25T08:02:46.733Z,31.15
2023-07-25T08:05:14.306Z,30.63
2023-07-25T08:07:41.856Z,30.17
2023-07-25T08:10:09.092Z,29.81
2023-07-25T08:12:36.098Z,29.51
2023-07-25T08:15:03.089Z,29.30
2023-07-25T08:17:29.953Z,29.14
2023-07-25T08:19:56.690Z,29.06
2023-07-25T08:22:23.421Z,28.99
2023-07-25T08:24:55.198Z,28.95
2023-07-25T08:27:22.418Z,28.95
2023-07-25T08:29:50.056Z,28.96
2023-07-25T08:32:16.947Z,28.94
2023-07-25T08:34:43.932Z,28.91
2023-07-25T08:37:10.977Z,28.91
2023-07-25T08:39:37.692Z,28.94
2023-07-25T08:42:07.374Z,29.01
2023-07-25T08:44:55.740Z,29.01
2023-07-25T08:47:27.359Z,29.08
2023-07-25T08:49:57.948Z,29.30
2023-07-25T08:52:31.849Z,29.64
2023-07-25T08:54:58.711Z,30.52
2023-07-25T08:57:27.528Z,31.83
2023-07-25T08:59:54.883Z,33.52
2023-07-25T09:02:22.331Z,35.36
2023-07-25T09:04:49.193Z,37.28
2023-07-25T09:07:16.048Z,38.85
2023-07-25T09:09:42.765Z,39.93
2023-07-25T09:12:10.992Z,40.86
2023-07-25T09:14:39.527Z,41.95
2023-07-25T09:17:09.450Z,42.97
2023-07-25T09:19:36.315Z,43.35
2023-07-25T09:22:03.297Z,43.70
2023-07-25T09:24:40.438Z,44.38
2023-07-25T09:27:16.935Z,44.78
2023-07-25T09:29:44.264Z,44.93
2023-07-25T09:32:25.725Z,45.28
2023-07-25T09:34:57.690Z,45.82
2023-07-25T09:37:25.130Z,46.44
2023-07-25T09:39:52.891Z,47.16
2023-07-25T09:42:29.062Z,47.82
2023-07-25T09:44:57.708Z,48.44
2023-07-25T09:47:28.647Z,48.87
2023-07-25T09:49:57.171Z,49.31
2023-07-25T09:52:24.646Z,49.70
2023-07-25T09:54:52.017Z,50.02
2023-07-25T09:57:19.634Z,50.33
2023-07-25T09:59:50.708Z,50.52
2023-07-25T10:02:18.230Z,50.70
2023-07-25T10:04:47.023Z,50.78
2023-07-25T10:07:15.708Z,50.55
2023-07-25T10:09:45.703Z,50.55
2023-07-25T10:12:12.926Z,50.24
2023-07-25T10:14:39.762Z,50.05
2023-07-25T10:17:26.180Z,50.05
2023-07-25T10:19:56.932Z,50.16
2023-07-25T10:22:41.132Z,49.84
2023-07-25T10:25:22.201Z,49.34
2023-07-25T10:27:54.456Z,48.82
2023-07-25T10:30:23.932Z,48.45
2023-07-25T10:32:55.769Z,48.01
2023-07-25T10:35:50.893Z,47.69
2023-07-25T10:38:22.130Z,47.37
2023-07-25T10:40:55.033Z,46.94
2023-07-25T10:43:26.547Z,46.51
2023-07-25T10:45:54.734Z,46.31
2023-07-25T10:48:35.212Z,46.20
2023-07-25T10:51:06.182Z,46.09
2023-07-25T10:53:33.050Z,45.86
2023-07-25T10:56:10.595Z,45.31
2023-07-25T10:59:05.035Z,44.20
2023-07-25T11:01:45.237Z,43.34
2023-07-25T11:04:39.798Z,42.47
2023-07-25T11:07:12.564Z,41.72
2023-07-25T11:09:42.598Z,41.18
2023-07-25T11:12:11.142Z,40.67
2023-07-25T11:14:45.546Z,40.07
2023-07-25T11:17:13.449Z,39.53
2023-07-25T11:19:40.991Z,39.06
2023-07-25T11:22:12.835Z,38.58
2023-07-25T11:24:48.450Z,38.21
2023-07-25T11:27:15.884Z,37.95
2023-07-25T11:29:42.754Z,37.65
2023-07-25T11:32:09.845Z,37.34
2023-07-25T11:34:36.582Z,37.12
2023-07-25T11:37:10.393Z,36.98
2023-07-25T11:39:37.232Z,36.78
2023-07-25T11:42:04.329Z,36.64
2023-07-25T11:44:32.961Z,36.44
2023-07-25T11:47:00.912Z,36.26
2023-07-25T11:49:45.496Z,36.17
2023-07-25T11:52:14.931Z,36.09
2023-07-25T11:54:41.975Z,36.05
2023-07-25T11:57:11.085Z,36.06
2023-07-25T11:59:41.877Z,36.12
2023-07-25T12:02:08.881Z,36.09
2023-07-25T12:04:42.904Z,35.98
2023-07-25T12:07:10.251Z,35.86
2023-07-25T12:09:37.336Z,35.73
2023-07-25T12:12:04.391Z,35.64
2023-07-25T12:14:31.102Z,35.52
2023-07-25T12:17:02.848Z,35.41
2023-07-25T12:19:32.831Z,35.30
2023-07-25T12:22:07.190Z,35.28
2023-07-25T12:24:41.888Z,35.32
2023-07-25T12:27:19.740Z,35.35
2023-07-25T12:29:46.641Z,35.40
2023-07-25T12:32:14.601Z,35.41
2023-07-25T12:34:41.489Z,35.47
2023-07-25T12:37:08.189Z,35.55
2023-07-25T12:39:35.020Z,35.66
2023-07-25T12:42:01.688Z,35.84
2023-07-25T12:44:28.398Z,36.06
2023-07-25T12:46:55.095Z,36.27
2023-07-25T12:49:22.011Z,36.37
2023-07-25T12:51:48.809Z,36.44
2023-07-25T12:54:15.562Z,36.47
2023-07-25T12:56:42.305Z,36.40
2023-07-25T12:59:09.152Z,36.30
2023-07-25T13:01:36.252Z,36.16
2023-07-25T13:04:03.472Z,36.04
2023-07-25T13:06:30.292Z,36.00
2023-07-25T13:08:57.133Z,35.96
2023-07-25T13:11:23.891Z,35.84
2023-07-25T13:13:50.644Z,35.55
2023-07-25T13:16:17.617Z,35.31
2023-07-25T13:18:44.558Z,35.25
2023-07-25T13:21:11.343Z,35.29
2023-07-25T13:23:38.064Z,35.32
2023-07-25T13:26:04.841Z,35.31
2023-07-25T13:28:31.673Z,35.30
2023-07-25T13:30:59.128Z,35.22
2023-07-25T13:33:26.643Z,35.23
2023-07-25T13:35:53.369Z,35.23
2023-07-25T13:38:20.200Z,35.28
2023-07-25T13:40:46.994Z,35.32
2023-07-25T13:43:14.815Z,35.22
2023-07-25T13:45:52.126Z,35.18
2023-07-25T13:48:19.799Z,35.10
2023-07-25T13:50:53.680Z,34.93
2023-07-25T13:53:22.324Z,34.87
2023-07-25T13:55:51.163Z,34.83
2023-07-25T14:00:48.046Z,34.70
2023-07-25T14:03:14.909Z,34.73
2023-07-25T14:05:41.737Z,34.85
2023-07-25T14:08:09.024Z,35.04
2023-07-25T14:10:41.113Z,35.07
2023-07-25T14:13:08.108Z,35.07
2023-07-25T14:15:35.731Z,34.94
2023-07-25T14:18:02.902Z,34.73
2023-07-25T14:20:30.279Z,34.56
2023-07-25T14:22:57.027Z,34.51
2023-07-25T14:25:23.740Z,34.53
2023-07-25T14:27:50.643Z,34.54
2023-07-25T14:30:17.477Z,34.57
2023-07-25T14:32:44.515Z,34.56
2023-07-25T14:35:11.431Z,34.58
2023-07-25T14:37:53.673Z,34.73
2023-07-25T14:40:24.251Z,34.97
2023-07-25T14:42:51.166Z,35.03
2023-07-25T14:45:18.584Z,34.92
2023-07-25T14:47:45.916Z,34.83
2023-07-25T14:50:13.655Z,34.81
2023-07-25T14:52:40.464Z,34.88
2023-07-25T14:55:07.846Z,34.90
2023-07-25T14:57:34.549Z,34.89
2023-07-25T15:00:01.375Z,34.97
2023-07-25T15:02:28.312Z,35.05
2023-07-25T15:04:55.211Z,35.13
2023-07-25T15:07:21.908Z,35.21
2023-07-25T15:09:48.733Z,35.28
2023-07-25T15:12:15.469Z,35.31
2023-07-25T15:14:42.897Z,35.22
2023-07-25T15:17:29.885Z,35.07
2023-07-25T15:19:59.362Z,34.95
2023-07-25T15:22:26.195Z,34.78
2023-07-25T15:24:54.284Z,34.65
2023-07-25T15:27:21.708Z,34.58
2023-07-25T15:29:49.485Z,34.54
2023-07-25T15:32:16.882Z,34.47
2023-07-25T15:34:43.661Z,34.41
2023-07-25T15:37:10.522Z,34.43
2023-07-25T15:39:37.373Z,34.54
2023-07-25T15:42:04.615Z,34.74
2023-07-25T15:44:31.378Z,35.02
2023-07-25T15:46:58.852Z,35.22
2023-07-25T15:49:25.585Z,35.35
2023-07-25T15:51:52.358Z,35.34
2023-07-25T15:54:19.084Z,35.26
2023-07-25T15:56:45.914Z,35.25
2023-07-25T15:59:13.243Z,35.24
2023-07-25T16:01:40.037Z,35.23
2023-07-25T16:04:09.849Z,35.22
2023-07-25T16:06:36.640Z,35.18
2023-07-25T16:09:03.725Z,35.16
2023-07-25T16:11:30.706Z,35.17
2023-07-25T16:13:57.678Z,35.18
2023-07-25T16:16:24.598Z,35.16
2023-07-25T16:18:51.335Z,35.11
2023-07-25T16:21:18.110Z,35.03
2023-07-25T16:23:44.848Z,34.97
2023-07-25T16:26:11.617Z,34.95
2023-07-25T16:28:38.338Z,34.87
2023-07-25T16:31:22.737Z,34.82
2023-07-25T16:33:53.811Z,34.78
2023-07-25T16:36:20.606Z,34.73
2023-07-25T16:38:47.379Z,34.68
2023-07-25T16:41:15.015Z,34.65
2023-07-25T16:43:41.866Z,34.61
2023-07-25T16:46:08.588Z,34.57
2023-07-25T16:48:35.764Z,34.55
2023-07-25T16:51:02.552Z,34.51
2023-07-25T16:53:29.480Z,34.48
2023-07-25T16:55:56.235Z,34.46
2023-07-25T16:58:23.061Z,34.45
2023-07-25T17:00:50.436Z,34.41
2023-07-25T17:03:17.444Z,34.39
2023-07-25T17:05:44.547Z,34.37
2023-07-25T17:08:12.397Z,34.33
2023-07-25T17:10:39.306Z,34.30
2023-07-25T17:13:06.392Z,34.28
2023-07-25T17:15:33.754Z,34.24
2023-07-25T17:18:00.589Z,34.24
2023-07-25T17:20:27.609Z,34.21
2023-07-25T17:22:54.462Z,34.20
2023-07-25T17:25:21.122Z,34.17
2023-07-25T17:27:47.924Z,34.14
2023-07-25T17:30:16.318Z,34.12
2023-07-25T17:32:43.781Z,34.10
2023-07-25T17:35:13.027Z,34.07
2023-07-25T17:37:44.467Z,34.05
2023-07-25T17:40:11.556Z,34.02
2023-07-25T17:42:38.336Z,34.00
2023-07-25T17:45:05.416Z,33.97
2023-07-25T17:47:33.661Z,33.93
2023-07-25T17:50:00.636Z,33.90
2023-07-25T17:52:27.497Z,33.86
2023-07-25T17:54:54.220Z,33.81
2023-07-25T17:57:20.969Z,33.77
2023-07-25T17:59:47.618Z,33.75
2023-07-25T18:02:14.641Z,33.72
2023-07-25T18:04:41.908Z,33.70
2023-07-25T18:07:08.780Z,33.68
2023-07-25T18:09:35.814Z,33.66
2023-07-25T18:12:03.095Z,33.64
2023-07-25T18:14:29.863Z,33.61
2023-07-25T18:16:56.563Z,33.57
2023-07-25T18:19:23.221Z,33.55
2023-07-25T18:21:50.982Z,33.53
2023-07-25T18:24:20.651Z,33.51
2023-07-25T18:26:47.507Z,33.49
2023-07-25T18:29:14.143Z,33.47
2023-07-25T18:31:40.954Z,33.44
2023-07-25T18:34:07.574Z,33.41
2023-07-25T18:36:34.258Z,33.36
2023-07-25T18:39:01.880Z,33.30
2023-07-25T18:41:28.619Z,33.26
2023-07-25T18:43:55.272Z,33.22
2023-07-25T18:46:22.036Z,33.18
2023-07-25T18:48:49.749Z,33.17
2023-07-25T18:51:16.459Z,33.14
2023-07-25T18:53:43.154Z,33.12
2023-07-25T18:56:09.834Z,33.09
2023-07-25T18:58:36.548Z,33.06
2023-07-25T19:01:03.350Z,33.01
2023-07-25T19:03:30.342Z,32.99
2023-07-25T19:05:57.250Z,32.98
2023-07-25T19:08:23.914Z,32.97
2023-07-25T19:10:50.681Z,32.95
2023-07-25T19:13:17.365Z,32.94
2023-07-25T19:15:44.707Z,32.93
2023-07-25T19:18:11.594Z,32.91
2023-07-25T19:20:38.318Z,32.89
2023-07-25T19:23:15.009Z,32.87
2023-07-25T19:25:46.342Z,32.84
2023-07-25T19:28:13.047Z,32.82
2023-07-25T19:30:44.105Z,32.79
2023-07-25T19:33:11.250Z,32.73
2023-07-25T19:35:39.570Z,32.69
2023-07-25T19:38:06.971Z,32.66
2023-07-25T19:40:34.176Z,32.60
2023-07-25T19:43:00.924Z,32.59
2023-07-25T19:45:27.695Z,32.56
2023-07-25T19:47:54.567Z,32.51
2023-07-25T19:50:21.226Z,32.46
2023-07-25T19:52:48.014Z,32.43
2023-07-25T19:55:14.697Z,32.38
2023-07-25T19:57:41.427Z,32.32
2023-07-25T20:00:09.895Z,32.28
2023-07-25T20:02:36.827Z,32.27
2023-07-25T20:05:03.865Z,32.25
2023-07-25T20:07:30.534Z,32.22
2023-07-25T20:09:57.247Z,32.20
2023-07-25T20:12:24.015Z,32.19
2023-07-25T20:14:50.705Z,32.15
2023-07-25T20:17:17.381Z,32.13
2023-07-25T20:19:44.035Z,32.09
2023-07-25T20:22:10.806Z,32.07
2023-07-25T20:24:37.506Z,32.03
2023-07-25T20:27:04.346Z,32.01
2023-07-25T20:29:31.077Z,31.99
2023-07-25T20:31:57.952Z,31.96
2023-07-25T20:34:24.649Z,31.93
2023-07-25T20:36:51.340Z,31.89
2023-07-25T20:39:18.005Z,31.85
2023-07-25T20:41:44.705Z,31.83
2023-07-25T20:44:11.322Z,31.80
2023-07-25T20:46:38.133Z,31.77
2023-07-25T20:49:04.833Z,31.73
2023-07-25T20:51:31.624Z,31.71
2023-07-25T20:53:58.274Z,31.68
2023-07-25T20:56:25.051Z,31.64
2023-07-25T20:58:51.712Z,31.63
2023-07-25T21:01:18.468Z,31.62
2023-07-25T21:03:45.135Z,31.61
2023-07-25T21:06:11.862Z,31.60
2023-07-25T21:08:38.498Z,31.57
2023-07-25T21:11:08.855Z,31.57
2023-07-25T21:13:36.612Z,31.55
2023-07-25T21:16:03.448Z,31.52
2023-07-25T21:18:30.313Z,31.49
2023-07-25T21:20:57.167Z,31.47
2023-07-25T21:23:25.215Z,31.45
2023-07-25T21:25:54.671Z,31.42
2023-07-25T21:28:21.380Z,31.38
2023-07-25T21:30:48.092Z,31.32
2023-07-25T21:33:15.945Z,31.29
2023-07-25T21:35:42.580Z,31.25
2023-07-25T21:38:09.257Z,31.22
2023-07-25T21:40:35.991Z,31.17
2023-07-25T21:43:02.731Z,31.15
2023-07-25T21:45:29.752Z,31.11
2023-07-25T21:47:56.431Z,31.10
2023-07-25T21:50:23.187Z,31.07
2023-07-25T21:52:49.933Z,31.06
2023-07-25T21:55:16.593Z,31.06
2023-07-25T21:57:43.315Z,31.05
2023-07-25T22:00:11.354Z,31.05
2023-07-25T22:02:41.713Z,31.03
2023-07-25T22:05:08.485Z,31.02
2023-07-25T22:07:35.223Z,30.99
2023-07-25T22:10:02.094Z,30.98
2023-07-25T22:12:28.718Z,30.96
2023-07-25T22:14:55.400Z,30.93
2023-07-25T22:17:22.498Z,30.93
2023-07-25T22:19:49.208Z,30.91
2023-07-25T22:22:15.830Z,30.89
2023-07-25T22:24:42.597Z,30.86
2023-07-25T22:27:09.197Z,30.85
2023-07-25T22:29:35.900Z,30.84
2023-07-25T22:32:02.596Z,30.82
2023-07-25T22:34:29.368Z,30.81
2023-07-25T22:36:56.031Z,30.82
2023-07-25T22:39:23.019Z,30.83
2023-07-25T22:41:49.623Z,30.81
2023-07-25T22:44:16.414Z,30.81
2023-07-25T22:46:44.473Z,30.79
2023-07-25T22:49:11.166Z,30.79
2023-07-25T22:51:37.907Z,30.77
2023-07-25T22:54:04.586Z,30.74
2023-07-25T22:56:31.433Z,30.70
2023-07-25T22:58:58.385Z,30.66
2023-07-25T23:01:25.120Z,30.65
2023-07-25T23:03:51.786Z,30.65
2023-07-25T23:06:18.505Z,30.64
2023-07-25T23:08:45.279Z,30.64
2023-07-25T23:11:13.044Z,30.63
2023-07-25T23:13:39.657Z,30.63
2023-07-25T23:16:06.403Z,30.63
2023-07-25T23:18:33.259Z,30.63
2023-07-25T23:21:00.777Z,30.62
2023-07-25T23:23:27.734Z,30.63
2023-07-25T23:25:54.384Z,30.62
2023-07-25T23:28:21.130Z,30.61
2023-07-25T23:30:47.841Z,30.61
2023-07-25T23:33:14.530Z,30.60
2023-07-25T23:35:41.230Z,30.61
2023-07-25T23:38:07.958Z,30.61
2023-07-25T23:40:34.731Z,30.60
2023-07-25T23:43:02.907Z,30.57
2023-07-25T23:45:30.490Z,30.53
2023-07-25T23:47:57.197Z,30.50
2023-07-25T23:50:23.903Z,30.45
2023-07-25T23:52:50.645Z,30.42
2023-07-25T23:55:17.398Z,30.41
2023-07-25T23:57:44.069Z,30.40
